Time;durP1;ratioP1;P1;durP2;ratioP2;P2;SDS_P1;SDS_P2;PMS_P1;PMS_P2;Temp;Humidity;BMP_temperature;BMP_pressure;BME280_temperature;BME280_humidity;BME280_pressure;Samples;Min_cycle;Max_cycle;Signal;HPM_P1;HPM_P2
2022/11/26 00:01:00;;;;;;;11.52;3.50;;;4.80;99.90;;;;;;5089070;28;20033;-84
2022/11/26 00:03:27;;;;;;;12.82;4.50;;;4.70;99.90;;;;;;5058842;28;20040;-83
2022/11/26 00:05:56;;;;;;;12.73;3.13;;;4.90;99.90;;;;;;5075821;28;20039;-84
2022/11/26 00:08:33;;;;;;;13.70;3.22;;;4.70;99.90;;;;;;5091944;28;20406;-84
2022/11/26 00:11:00;;;;;;;14.85;3.00;;;4.80;99.90;;;;;;5092272;28;20492;-84
2022/11/26 00:13:29;;;;;;;11.57;3.03;;;4.70;99.90;;;;;;5092005;28;20480;-84
2022/11/26 00:15:56;;;;;;;11.10;2.90;;;5.10;99.90;;;;;;5109209;28;20075;-84
2022/11/26 00:18:25;;;;;;;11.13;3.05;;;4.70;99.90;;;;;;5059375;28;20524;-84
2022/11/26 00:20:55;;;;;;;10.82;2.63;;;4.70;99.90;;;;;;5092447;28;20127;-84
2022/11/26 00:23:24;;;;;;;9.52;3.13;;;5.00;99.90;;;;;;5109239;28;20128;-84
2022/11/26 00:25:54;;;;;;;15.98;3.35;;;4.60;99.90;;;;;;5091972;28;20357;-84
2022/11/26 00:28:28;;;;;;;14.60;3.10;;;4.70;99.90;;;;;;5075506;28;20044;-84
2022/11/26 00:30:58;;;;;;;8.70;3.03;;;4.70;99.90;;;;;;5092104;28;20039;-84
2022/11/26 00:33:26;;;;;;;13.75;2.80;;;4.70;99.90;;;;;;5092293;28;20040;-84
2022/11/26 00:35:57;;;;;;;11.43;2.78;;;4.70;99.90;;;;;;5095372;28;20040;-84
2022/11/26 00:38:25;;;;;;;9.88;2.95;;;5.10;99.90;;;;;;5095688;28;20500;-84
2022/11/26 00:40:51;;;;;;;11.63;2.65;;;4.60;99.90;;;;;;5095538;28;20134;-84
2022/11/26 00:43:18;;;;;;;8.68;2.88;;;4.60;99.90;;;;;;5078881;28;20127;-84
2022/11/26 00:45:46;;;;;;;10.52;2.50;;;4.60;99.90;;;;;;5062277;28;20196;-84
2022/11/26 00:48:14;;;;;;;10.70;3.05;;;4.50;99.90;;;;;;5095738;28;20055;-84
2022/11/26 00:50:50;;;;;;;13.45;3.40;;;4.60;99.90;;;;;;5078768;28;20503;-84
2022/11/26 00:53:20;;;;;;;21.38;3.38;;;4.60;99.90;;;;;;5075385;28;20488;-84
2022/11/26 00:55:48;;;;;;;12.13;3.28;;;4.60;99.90;;;;;;5074934;28;20769;-84
2022/11/26 00:58:23;;;;;;;12.30;3.65;;;4.60;99.90;;;;;;5058955;28;20040;-84
2022/11/26 01:00:51;;;;;;;18.90;3.45;;;4.60;99.90;;;;;;5074738;28;20041;-84
2022/11/26 01:03:18;;;;;;;16.73;3.67;;;5.00;99.90;;;;;;5087311;28;20514;-84
2022/11/26 01:05:49;;;;;;;9.27;2.90;;;4.50;99.90;;;;;;5111100;28;20039;-84
2022/11/26 01:08:33;;;;;;;11.15;3.05;;;4.60;99.90;;;;;;5094997;28;20109;-84
2022/11/26 01:11:01;;;;;;;9.35;3.35;;;4.60;99.90;;;;;;5094822;28;20036;-84
2022/11/26 01:13:29;;;;;;;13.00;2.92;;;4.60;99.90;;;;;;5111455;28;20381;-84
2022/11/26 01:15:58;;;;;;;14.20;3.30;;;4.60;99.90;;;;;;5111411;28;20036;-84
2022/11/26 01:18:26;;;;;;;16.48;3.47;;;4.60;99.90;;;;;;5094864;28;20036;-84
2022/11/26 01:20:53;;;;;;;14.75;3.92;;;4.60;99.90;;;;;;5077701;28;20044;-84
2022/11/26 01:23:20;;;;;;;15.80;3.60;;;4.70;99.90;;;;;;5061336;28;20036;-84
2022/11/26 01:25:47;;;;;;;17.77;3.80;;;5.00;99.90;;;;;;5061611;28;20047;-84
2022/11/26 01:28:16;;;;;;;10.80;3.70;;;4.50;99.90;;;;;;5094517;28;20055;-84
2022/11/26 01:30:43;;;;;;;16.50;2.97;;;4.50;99.90;;;;;;5094336;28;20050;-83
2022/11/26 01:33:10;;;;;;;14.13;4.45;;;4.50;99.90;;;;;;5094228;28;20059;-84
2022/11/26 01:35:37;;;;;;;12.10;3.60;;;4.90;99.90;;;;;;5078274;28;20052;-84
2022/11/26 01:38:04;;;;;;;8.55;3.28;;;4.50;99.90;;;;;;5078019;28;20032;-84
2022/11/26 01:40:58;;;;;;;16.33;3.65;;;4.30;99.90;;;;;;5061030;28;20101;-84
2022/11/26 01:43:41;;;;;;;9.52;2.75;;;4.20;99.90;;;;;;5094391;28;20093;-83
2022/11/26 01:46:21;;;;;;;10.10;3.17;;;4.80;99.90;;;;;;5056479;28;20421;-84
2022/11/26 01:48:49;;;;;;;7.75;2.72;;;4.10;99.90;;;;;;5057342;28;20047;-84
2022/11/26 01:51:28;;;;;;;7.50;2.90;;;4.20;99.90;;;;;;5057513;28;20037;-84
2022/11/26 01:53:59;;;;;;;11.27;3.28;;;4.40;99.90;;;;;;5075381;28;20053;-83
2022/11/26 01:56:46;;;;;;;11.73;3.28;;;4.00;99.90;;;;;;5077491;28;20504;-84
2022/11/26 01:59:26;;;;;;;10.68;3.03;;;3.90;99.90;;;;;;5094236;28;20039;-84
2022/11/26 02:01:57;;;;;;;8.27;2.78;;;3.90;99.90;;;;;;5110663;28;20051;-83
2022/11/26 02:04:30;;;;;;;8.18;2.83;;;3.90;99.90;;;;;;5093746;28;20039;-83
2022/11/26 02:06:57;;;;;;;7.18;3.20;;;3.80;99.90;;;;;;5093647;28;20075;-83
2022/11/26 02:09:26;;;;;;;7.47;2.78;;;3.80;99.90;;;;;;5094042;28;20036;-84
2022/11/26 02:11:53;;;;;;;6.22;2.85;;;3.80;99.90;;;;;;5077531;28;20039;-84
2022/11/26 02:14:25;;;;;;;9.38;2.95;;;3.80;99.90;;;;;;5077515;28;20119;-83
2022/11/26 02:17:26;;;;;;;8.20;3.05;;;3.70;99.90;;;;;;5110463;28;20454;-84
2022/11/26 02:20:18;;;;;;;10.93;2.78;;;3.70;99.90;;;;;;5093752;28;20389;-84
2022/11/26 02:22:50;;;;;;;7.60;2.75;;;3.70;99.90;;;;;;5093421;28;20055;-82
2022/11/26 02:25:45;;;;;;;8.00;2.80;;;3.60;99.90;;;;;;5093875;28;20048;-84
2022/11/26 02:28:49;;;;;;;15.20;3.45;;;3.60;99.90;;;;;;5093675;28;20438;-84
2022/11/26 02:31:26;;;;;;;13.30;3.25;;;3.60;99.90;;;;;;5093562;28;20075;-84
2022/11/26 02:34:01;;;;;;;8.30;3.72;;;3.60;99.90;;;;;;5093399;28;20043;-84
2022/11/26 02:36:37;;;;;;;8.63;3.10;;;3.70;99.90;;;;;;5110205;28;20048;-84
2022/11/26 02:39:12;;;;;;;10.75;3.60;;;3.50;99.90;;;;;;5110171;28;20040;-84
2022/11/26 02:41:44;;;;;;;8.27;2.90;;;3.50;99.90;;;;;;5076917;28;20101;-84
2022/11/26 02:44:16;;;;;;;9.70;3.20;;;3.70;99.90;;;;;;5093348;28;20043;-84
2022/11/26 02:46:45;;;;;;;9.93;3.30;;;3.50;99.90;;;;;;5093134;28;20044;-84
2022/11/26 02:49:19;;;;;;;9.15;3.60;;;3.50;99.90;;;;;;5093049;28;20047;-84
2022/11/26 02:51:51;;;;;;;6.75;2.95;;;4.20;99.90;;;;;;5109937;28;20040;-84
2022/11/26 02:54:20;;;;;;;9.93;3.40;;;3.40;99.90;;;;;;5093150;28;20052;-84
2022/11/26 02:56:49;;;;;;;5.85;3.10;;;3.40;99.90;;;;;;5092683;28;20609;-84
2022/11/26 02:59:16;;;;;;;10.55;3.65;;;3.40;99.90;;;;;;5076600;28;20040;-84
2022/11/26 03:01:58;;;;;;;12.73;3.72;;;3.40;99.90;;;;;;5076374;28;20415;-84
2022/11/26 03:04:29;;;;;;;8.07;3.40;;;3.30;99.90;;;;;;5092830;28;20177;-84
2022/11/26 03:07:02;;;;;;;9.48;3.58;;;3.30;99.90;;;;;;5092536;28;20036;-84
2022/11/26 03:09:39;;;;;;;6.40;2.67;;;3.30;99.90;;;;;;5093268;28;20044;-84
2022/11/26 03:12:06;;;;;;;7.28;2.90;;;3.30;99.90;;;;;;5109349;28;20484;-84
2022/11/26 03:14:32;;;;;;;11.45;3.35;;;3.20;99.90;;;;;;5059916;28;20039;-84
2022/11/26 03:16:59;;;;;;;11.60;4.20;;;3.60;99.90;;;;;;5076013;28;20560;-84
2022/11/26 03:19:26;;;;;;;10.90;3.10;;;3.60;99.90;;;;;;5109221;28;20046;-84
2022/11/26 03:21:52;;;;;;;8.93;3.35;;;3.20;99.90;;;;;;5059149;28;20051;-84
2022/11/26 03:24:19;;;;;;;8.98;3.40;;;3.20;99.90;;;;;;5055967;28;20416;-84
2022/11/26 03:26:46;;;;;;;11.52;3.83;;;3.20;99.90;;;;;;5056398;28;20506;-84
2022/11/26 03:29:12;;;;;;;9.00;3.53;;;3.20;99.90;;;;;;5056106;28;20032;-84
2022/11/26 03:31:39;;;;;;;7.30;3.42;;;3.60;99.90;;;;;;5072567;28;20048;-84
2022/11/26 03:34:06;;;;;;;14.05;4.10;;;3.10;99.90;;;;;;5073772;28;20123;-84
2022/11/26 03:36:32;;;;;;;10.05;3.38;;;3.10;99.90;;;;;;5076325;28;20391;-84
2022/11/26 03:38:59;;;;;;;10.35;4.13;;;3.30;99.90;;;;;;5059939;28;20040;-84
2022/11/26 03:41:26;;;;;;;9.30;3.67;;;3.10;99.90;;;;;;5075925;28;20122;-84
2022/11/26 03:43:53;;;;;;;8.13;3.53;;;3.10;99.90;;;;;;5059218;28;20035;-84
2022/11/26 03:46:19;;;;;;;10.35;4.05;;;3.10;99.90;;;;;;5059360;28;20032;-84
2022/11/26 03:48:46;;;;;;;8.27;3.40;;;3.10;99.90;;;;;;5108940;28;20036;-84
2022/11/26 03:51:12;;;;;;;10.40;3.63;;;3.60;99.90;;;;;;5092499;28;20044;-84
2022/11/26 03:53:39;;;;;;;10.43;4.53;;;3.10;99.90;;;;;;5059075;28;20040;-84
2022/11/26 03:56:06;;;;;;;12.02;4.07;;;3.10;99.90;;;;;;5075880;28;20454;-84
2022/11/26 03:58:34;;;;;;;9.05;4.15;;;3.00;99.90;;;;;;5059355;28;20078;-84
2022/11/26 04:01:09;;;;;;;13.55;4.82;;;3.10;99.90;;;;;;5075617;28;20051;-83
2022/11/26 04:03:37;;;;;;;10.95;4.32;;;3.10;99.90;;;;;;5092184;28;20040;-84
2022/11/26 04:06:04;;;;;;;11.75;4.50;;;3.10;99.90;;;;;;5092018;28;20047;-84
2022/11/26 04:08:31;;;;;;;16.58;4.50;;;3.00;99.90;;;;;;5092577;28;20036;-83
2022/11/26 04:10:58;;;;;;;10.90;4.53;;;3.00;99.90;;;;;;5095956;28;20051;-84
2022/11/26 04:13:25;;;;;;;12.60;4.68;;;3.10;99.90;;;;;;5079647;28;20043;-84
2022/11/26 04:15:52;;;;;;;13.95;4.47;;;3.10;99.90;;;;;;5079598;28;20040;-84
2022/11/26 04:18:18;;;;;;;10.73;4.40;;;3.50;99.90;;;;;;5063234;28;20040;-84
2022/11/26 04:20:45;;;;;;;13.45;4.93;;;3.00;99.90;;;;;;5079185;28;20093;-84
2022/11/26 04:23:12;;;;;;;10.43;4.78;;;3.00;99.90;;;;;;5079411;28;20044;-84
2022/11/26 04:25:38;;;;;;;10.68;4.88;;;3.00;99.90;;;;;;5095774;28;20075;-84
2022/11/26 04:28:05;;;;;;;8.43;4.25;;;3.40;99.90;;;;;;5079263;28;20047;-83
2022/11/26 04:30:32;;;;;;;10.75;5.22;;;3.10;99.90;;;;;;5079338;28;20055;-84
2022/11/26 04:32:58;;;;;;;8.70;4.30;;;3.30;99.90;;;;;;5096147;28;20097;-84
2022/11/26 04:35:25;;;;;;;11.15;4.93;;;2.90;99.90;;;;;;5075595;28;20043;-84
2022/11/26 04:37:52;;;;;;;12.05;4.68;;;2.90;99.90;;;;;;5092354;28;20109;-84
2022/11/26 04:40:19;;;;;;;14.10;4.60;;;2.90;99.90;;;;;;5058858;28;20048;-84
2022/11/26 04:42:46;;;;;;;9.77;4.53;;;2.90;99.90;;;;;;5075680;28;20037;-84
2022/11/26 04:45:12;;;;;;;16.70;5.03;;;3.00;99.90;;;;;;5062034;28;20514;-84
2022/11/26 04:47:39;;;;;;;11.35;4.57;;;3.40;99.90;;;;;;5062498;28;20047;-84
2022/11/26 04:50:06;;;;;;;8.93;4.47;;;3.30;99.90;;;;;;5062299;28;20039;-82
2022/11/26 04:52:33;;;;;;;10.27;4.68;;;2.90;99.90;;;;;;5095280;28;20395;-84
2022/11/26 04:55:00;;;;;;;12.07;4.60;;;3.50;99.90;;;;;;5078574;28;20055;-84
2022/11/26 04:57:26;;;;;;;12.60;4.47;;;3.60;99.90;;;;;;5095070;28;20097;-84
2022/11/26 04:59:53;;;;;;;11.55;4.63;;;3.20;99.90;;;;;;5078626;28;20070;-84
2022/11/26 05:02:20;;;;;;;11.20;4.70;;;2.90;99.90;;;;;;5078846;28;20076;-84
2022/11/26 05:04:46;;;;;;;11.00;4.57;;;2.90;99.90;;;;;;5078899;28;20047;-84
2022/11/26 05:07:13;;;;;;;10.38;4.65;;;2.90;99.90;;;;;;5094566;28;20044;-84
2022/11/26 05:09:40;;;;;;;16.55;4.80;;;2.80;99.90;;;;;;5062160;28;20058;-84
2022/11/26 05:12:06;;;;;;;13.35;4.50;;;3.30;99.90;;;;;;5095339;28;20082;-84
2022/11/26 05:14:33;;;;;;;8.48;4.07;;;2.90;99.90;;;;;;5078330;28;20089;-84
2022/11/26 05:17:00;;;;;;;10.60;4.28;;;3.10;99.90;;;;;;5078380;28;20076;-84
2022/11/26 05:19:26;;;;;;;10.48;4.82;;;3.20;99.90;;;;;;5094822;28;20040;-84
2022/11/26 05:21:53;;;;;;;12.52;5.07;;;3.20;99.90;;;;;;5078372;28;20038;-84
2022/11/26 05:24:20;;;;;;;11.55;5.38;;;3.10;99.90;;;;;;5061438;28;20073;-84
2022/11/26 05:26:46;;;;;;;15.32;5.10;;;2.90;99.90;;;;;;5061660;28;20043;-84
2022/11/26 05:29:13;;;;;;;14.38;5.00;;;3.30;99.90;;;;;;5078044;28;20067;-83
2022/11/26 05:31:40;;;;;;;12.75;5.50;;;3.00;99.90;;;;;;5078073;28;20149;-84
2022/11/26 05:34:06;;;;;;;9.35;5.20;;;3.00;99.90;;;;;;5094723;28;20047;-84
2022/11/26 05:36:33;;;;;;;14.18;5.22;;;3.00;99.90;;;;;;5077692;28;20044;-84
2022/11/26 05:39:00;;;;;;;16.80;5.65;;;3.00;99.90;;;;;;5077961;28;20157;-84
2022/11/26 05:41:26;;;;;;;10.88;5.07;;;3.00;99.90;;;;;;5061293;28;20109;-84
2022/11/26 05:43:53;;;;;;;12.95;4.55;;;3.40;99.90;;;;;;5077757;28;20059;-84
2022/11/26 05:46:20;;;;;;;12.50;5.10;;;3.10;99.90;;;;;;5061262;28;20044;-84
2022/11/26 05:48:47;;;;;;;12.75;4.63;;;3.10;99.90;;;;;;5077696;28;20032;-84
2022/11/26 05:51:13;;;;;;;17.45;6.15;;;3.00;99.90;;;;;;5094331;28;20396;-84
2022/11/26 05:53:40;;;;;;;17.85;6.35;;;3.10;99.90;;;;;;5077248;28;20028;-84
2022/11/26 05:56:07;;;;;;;14.75;6.25;;;3.20;99.90;;;;;;5077503;28;20504;-84
2022/11/26 05:58:34;;;;;;;15.93;5.85;;;3.10;99.90;;;;;;5077293;28;20087;-84
2022/11/26 06:01:06;;;;;;;13.45;5.15;;;3.80;99.90;;;;;;5077477;28;20036;-84
2022/11/26 06:03:32;;;;;;;14.30;5.75;;;3.10;99.90;;;;;;5077401;28;20040;-83
2022/11/26 06:05:59;;;;;;;10.65;5.32;;;3.10;99.90;;;;;;5077554;28;20043;-84
2022/11/26 06:08:26;;;;;;;18.85;5.95;;;3.10;99.90;;;;;;5060761;28;20098;-83
2022/11/26 06:10:53;;;;;;;15.70;5.43;;;3.20;99.90;;;;;;5110395;28;20392;-83
2022/11/26 06:13:19;;;;;;;16.88;5.30;;;3.30;99.90;;;;;;5077070;28;20028;-83
2022/11/26 06:15:46;;;;;;;20.38;5.72;;;3.20;99.90;;;;;;5094176;28;20435;-84
2022/11/26 06:18:13;;;;;;;13.10;5.60;;;3.20;99.90;;;;;;5076965;28;20036;-84
2022/11/26 06:20:39;;;;;;;16.10;5.57;;;3.30;99.90;;;;;;5093604;28;20036;-84
2022/11/26 06:23:06;;;;;;;22.40;6.65;;;3.30;99.90;;;;;;5077299;28;20038;-83
2022/11/26 06:25:33;;;;;;;14.23;5.97;;;3.30;99.90;;;;;;5076972;28;20451;-83
2022/11/26 06:27:59;;;;;;;16.75;6.10;;;3.30;99.90;;;;;;5077002;28;20127;-84
2022/11/26 06:30:26;;;;;;;19.88;6.10;;;3.30;99.90;;;;;;5093502;28;20511;-84
2022/11/26 06:32:53;;;;;;;12.32;6.47;;;3.70;99.90;;;;;;5076636;28;20032;-84
2022/11/26 06:35:19;;;;;;;18.25;7.38;;;3.30;99.90;;;;;;5077087;28;20036;-84
2022/11/26 06:37:46;;;;;;;14.48;7.15;;;3.40;99.90;;;;;;5060388;28;20043;-84
2022/11/26 06:40:19;;;;;;;20.73;7.40;;;3.70;99.90;;;;;;5077146;28;20415;-84
2022/11/26 06:42:49;;;;;;;16.73;6.70;;;3.40;99.90;;;;;;5077106;28;20044;-84
2022/11/26 06:45:17;;;;;;;12.88;6.43;;;3.50;99.90;;;;;;5109893;28;20036;-84
2022/11/26 06:47:46;;;;;;;17.77;6.80;;;3.80;99.90;;;;;;5076572;28;20499;-84
2022/11/26 06:50:14;;;;;;;24.38;6.72;;;3.60;99.90;;;;;;5093207;28;20089;-84
2022/11/26 06:52:41;;;;;;;17.27;6.50;;;3.60;99.90;;;;;;5076593;28;20392;-83
2022/11/26 06:55:08;;;;;;;14.75;6.43;;;4.10;99.90;;;;;;5076186;28;20060;-83
2022/11/26 06:57:34;;;;;;;23.42;6.05;;;3.60;99.90;;;;;;5093462;28;20075;-83
2022/11/26 07:00:02;;;;;;;23.92;6.60;;;3.80;99.90;;;;;;5076368;28;20148;-84
2022/11/26 07:02:29;;;;;;;34.10;6.70;;;3.60;99.90;;;;;;5076477;28;20523;-83
2022/11/26 07:04:56;;;;;;;11.60;5.75;;;4.30;99.90;;;;;;5059370;28;20043;-84
2022/11/26 07:07:22;;;;;;;24.75;6.50;;;3.70;99.90;;;;;;5059797;28;20496;-83
2022/11/26 07:09:49;;;;;;;33.92;6.63;;;3.60;99.90;;;;;;5076457;28;20048;-83
2022/11/26 07:12:16;;;;;;;14.43;6.18;;;3.70;99.90;;;;;;5076126;28;20090;-83
2022/11/26 07:14:42;;;;;;;11.63;6.00;;;3.60;99.90;;;;;;5075728;28;20043;-83
2022/11/26 07:17:09;;;;;;;12.65;5.88;;;4.00;99.90;;;;;;5092568;28;20079;-83
2022/11/26 07:19:36;;;;;;;24.45;6.00;;;3.60;99.90;;;;;;5092963;28;20054;-83
2022/11/26 07:22:02;;;;;;;20.25;6.35;;;3.70;99.90;;;;;;5059572;28;20043;-83
2022/11/26 07:24:29;;;;;;;23.70;6.57;;;4.00;99.90;;;;;;5060183;28;20051;-83
2022/11/26 07:26:56;;;;;;;20.80;6.03;;;4.10;99.90;;;;;;5059585;28;20040;-84
2022/11/26 07:29:23;;;;;;;20.55;6.63;;;3.70;99.90;;;;;;5076114;28;20427;-84
2022/11/26 07:31:50;;;;;;;13.32;6.18;;;3.70;99.90;;;;;;5059419;28;20032;-83
2022/11/26 07:34:16;;;;;;;8.95;5.28;;;4.10;99.90;;;;;;5059521;28;20499;-83
2022/11/26 07:36:44;;;;;;;21.58;6.15;;;3.80;99.90;;;;;;5076098;28;20044;-83
2022/11/26 07:39:11;;;;;;;15.85;6.47;;;3.90;99.90;;;;;;5060118;28;20404;-83
2022/11/26 07:41:38;;;;;;;10.98;5.57;;;3.80;99.90;;;;;;5075805;28;20522;-83
2022/11/26 07:44:04;;;;;;;16.75;6.43;;;3.90;99.90;;;;;;5076754;28;20032;-83
2022/11/26 07:46:31;;;;;;;18.45;6.38;;;4.10;99.90;;;;;;5080013;28;20113;-83
2022/11/26 07:48:58;;;;;;;26.17;6.57;;;4.50;99.90;;;;;;5096957;28;20127;-84
2022/11/26 07:51:27;;;;;;;12.18;6.20;;;4.00;99.90;;;;;;5080096;28;20036;-83
2022/11/26 07:53:56;;;;;;;30.15;6.63;;;4.30;99.90;;;;;;5096061;28;20124;-83
2022/11/26 07:56:22;;;;;;;25.98;6.18;;;4.80;99.90;;;;;;5080380;28;20051;-83
2022/11/26 07:58:49;;;;;;;19.98;6.32;;;4.00;99.90;;;;;;5096198;28;20065;-83
2022/11/26 08:01:22;;;;;;;13.80;6.40;;;4.10;99.90;;;;;;5096483;28;20046;-83
2022/11/26 08:03:50;;;;;;;19.83;6.07;;;4.10;99.90;;;;;;5096056;28;20052;-83
2022/11/26 08:06:20;;;;;;;11.05;6.10;;;4.20;99.90;;;;;;5096217;28;20492;-83
2022/11/26 08:08:47;;;;;;;16.65;6.35;;;4.20;99.90;;;;;;5113162;28;20036;-83
2022/11/26 08:11:23;;;;;;;15.13;6.47;;;4.30;99.90;;;;;;5096219;28;20361;-84
2022/11/26 08:13:57;;;;;;;22.95;7.28;;;4.20;99.90;;;;;;5079473;28;20032;-83
2022/11/26 08:16:24;;;;;;;20.00;6.60;;;4.30;99.90;;;;;;5096176;28;20110;-83
2022/11/26 08:18:55;;;;;;;26.35;6.75;;;4.20;99.90;;;;;;5079524;28;20052;-83
2022/11/26 08:21:22;;;;;;;16.15;6.72;;;4.70;99.90;;;;;;5112860;28;20043;-83
2022/11/26 08:23:50;;;;;;;12.80;5.88;;;4.30;99.90;;;;;;5079244;28;20048;-83
2022/11/26 08:26:17;;;;;;;24.80;7.78;;;4.80;99.90;;;;;;5078028;28;20040;-83
2022/11/26 08:28:45;;;;;;;15.10;7.38;;;4.30;99.90;;;;;;5077780;28;20059;-82
2022/11/26 08:31:13;;;;;;;20.10;7.47;;;4.50;99.90;;;;;;5094904;28;20036;-84
2022/11/26 08:33:40;;;;;;;22.25;7.38;;;4.80;99.90;;;;;;5094036;28;20094;-82
2022/11/26 08:36:08;;;;;;;24.52;6.78;;;4.40;99.90;;;;;;5079155;28;20082;-82
2022/11/26 08:38:35;;;;;;;23.30;7.63;;;4.50;99.90;;;;;;5109701;28;20066;-83
2022/11/26 08:41:05;;;;;;;20.60;6.80;;;4.50;99.90;;;;;;5092730;28;20131;-83
2022/11/26 08:43:34;;;;;;;14.43;7.47;;;4.50;99.90;;;;;;5095309;28;20044;-82
2022/11/26 08:46:01;;;;;;;17.05;7.60;;;4.60;99.90;;;;;;5095507;28;20040;-82
2022/11/26 08:48:29;;;;;;;17.98;7.75;;;4.70;99.90;;;;;;5095399;28;20043;-82
2022/11/26 08:51:01;;;;;;;25.17;7.20;;;4.60;99.90;;;;;;5078901;28;20122;-82
2022/11/26 08:53:28;;;;;;;15.38;6.65;;;4.70;99.90;;;;;;5095215;28;20032;-83
2022/11/26 08:56:02;;;;;;;19.42;6.72;;;4.80;99.90;;;;;;5061647;28;20125;-83
2022/11/26 08:58:29;;;;;;;27.95;7.60;;;4.70;99.90;;;;;;5093649;28;20426;-82
2022/11/26 09:00:55;;;;;;;19.65;7.30;;;4.80;99.90;;;;;;5094567;28;20040;-82
2022/11/26 09:03:22;;;;;;;22.77;7.72;;;4.80;99.90;;;;;;5078032;28;20140;-83
2022/11/26 09:05:49;;;;;;;22.35;7.53;;;4.90;99.90;;;;;;5087696;28;20120;-82
2022/11/26 09:08:15;;;;;;;16.85;7.60;;;5.20;99.90;;;;;;5074453;28;20064;-82
2022/11/26 09:10:52;;;;;;;17.20;7.68;;;5.20;99.90;;;;;;5042085;28;20090;-82
2022/11/26 09:13:19;;;;;;;27.00;8.00;;;5.30;99.90;;;;;;5093125;28;20079;-82
2022/11/26 09:15:46;;;;;;;22.40;8.70;;;5.10;99.90;;;;;;5078241;28;20072;-82
2022/11/26 09:18:12;;;;;;;25.02;9.10;;;5.10;99.90;;;;;;5086469;28;20040;-82
2022/11/26 09:20:39;;;;;;;33.53;8.32;;;5.40;99.90;;;;;;5042223;28;20059;-83
2022/11/26 09:23:06;;;;;;;23.60;8.00;;;5.50;99.90;;;;;;5042209;28;20405;-83
2022/11/26 09:25:32;;;;;;;24.42;9.13;;;5.40;99.90;;;;;;5062956;28;20117;-83
2022/11/26 09:27:59;;;;;;;27.08;9.20;;;5.40;99.90;;;;;;5058189;28;20044;-82
2022/11/26 09:30:26;;;;;;;25.90;8.80;;;5.30;99.90;;;;;;5074706;28;20037;-82
2022/11/26 09:32:52;;;;;;;20.38;8.02;;;5.30;99.90;;;;;;5058514;28;20040;-82
2022/11/26 09:35:19;;;;;;;17.92;8.35;;;5.50;99.90;;;;;;5073829;28;20038;-83
2022/11/26 09:37:46;;;;;;;15.65;7.38;;;5.30;99.90;;;;;;5060805;28;20055;-82
2022/11/26 09:40:17;;;;;;;17.88;8.10;;;5.50;99.90;;;;;;5061600;28;20040;-83
2022/11/26 09:43:04;;;;;;;21.63;7.47;;;5.40;99.90;;;;;;5094321;28;20089;-82
2022/11/26 09:45:44;;;;;;;14.55;7.38;;;5.50;99.90;;;;;;5127266;28;20058;-82
2022/11/26 09:48:19;;;;;;;22.05;8.02;;;5.50;99.90;;;;;;5094354;28;20097;-83
2022/11/26 09:50:48;;;;;;;21.33;8.02;;;5.60;99.90;;;;;;5094492;28;20028;-82
2022/11/26 09:53:26;;;;;;;15.98;7.70;;;5.50;99.90;;;;;;5094537;28;20040;-82
2022/11/26 09:55:55;;;;;;;19.67;8.25;;;5.50;99.90;;;;;;5109662;28;20059;-85
2022/11/26 09:58:50;;;;;;;19.35;7.82;;;5.70;99.90;;;;;;5093290;28;20039;-83
2022/11/26 10:01:20;;;;;;;19.30;7.35;;;5.60;99.90;;;;;;5092259;28;20064;-84
2022/11/26 10:03:47;;;;;;;23.35;8.00;;;5.60;99.90;;;;;;5092972;28;20078;-83
2022/11/26 10:06:40;;;;;;;19.02;7.70;;;5.60;99.90;;;;;;5092795;28;20511;-83
2022/11/26 10:09:38;;;;;;;20.38;8.32;;;5.70;99.90;;;;;;5093141;28;20118;-83
2022/11/26 10:12:30;;;;;;;17.00;7.78;;;5.80;99.90;;;;;;5068303;28;20050;-83
2022/11/26 10:15:16;;;;;;;17.50;8.10;;;5.80;99.90;;;;;;5109511;28;20454;-82
2022/11/26 10:18:05;;;;;;;22.87;7.87;;;5.80;99.90;;;;;;5092713;28;20526;-83
2022/11/26 10:20:56;;;;;;;20.58;8.65;;;5.90;99.90;;;;;;5092345;28;20756;-83
2022/11/26 10:23:45;;;;;;;17.48;8.40;;;5.90;99.90;;;;;;5079286;28;20036;-83
2022/11/26 10:26:29;;;;;;;24.27;8.13;;;6.00;99.90;;;;;;5090220;28;20473;-83
2022/11/26 10:29:07;;;;;;;21.25;8.68;;;6.00;99.90;;;;;;5072223;28;20561;-83
2022/11/26 10:31:33;;;;;;;29.92;9.90;;;6.00;99.90;;;;;;5084327;28;20075;-83
2022/11/26 10:34:30;;;;;;;35.97;10.52;;;6.00;99.90;;;;;;5092389;28;20127;-83
2022/11/26 10:36:56;;;;;;;38.22;11.20;;;6.00;99.90;;;;;;5064370;28;20045;-82
2022/11/26 10:39:23;;;;;;;33.47;10.82;;;6.10;99.90;;;;;;5068844;28;20039;-82
2022/11/26 10:41:50;;;;;;;26.83;9.43;;;6.10;99.90;;;;;;5091737;28;20040;-83
2022/11/26 10:44:28;;;;;;;24.33;9.77;;;6.20;99.90;;;;;;5075696;28;20036;-82
2022/11/26 10:46:55;;;;;;;30.35;9.95;;;6.20;99.90;;;;;;5091838;28;20523;-82
2022/11/26 10:49:24;;;;;;;26.63;9.43;;;6.20;99.90;;;;;;5092387;28;20123;-83
2022/11/26 10:51:57;;;;;;;27.23;10.05;;;6.30;99.90;;;;;;5091928;28;20040;-82
2022/11/26 10:54:36;;;;;;;31.15;9.75;;;6.40;99.90;;;;;;5069197;28;1128974;-82
2022/11/26 10:57:08;;;;;;;19.88;9.10;;;6.40;99.90;;;;;;5084005;28;20059;-82
2022/11/26 10:59:53;;;;;;;26.50;11.38;;;6.50;99.90;;;;;;5083795;28;21582;-83
2022/11/26 11:02:26;;;;;;;29.88;10.57;;;6.50;99.90;;;;;;5092073;28;20488;-83
2022/11/26 11:04:56;;;;;;;24.05;10.10;;;6.50;99.90;;;;;;5109274;28;20051;-82
2022/11/26 11:07:42;;;;;;;27.60;10.50;;;6.50;99.90;;;;;;5076618;28;20069;-82
2022/11/26 11:10:09;;;;;;;;;;;6.50;99.90;;;;;;5076847;28;20069;-83
2022/11/26 11:12:38;;;;;;;32.17;10.77;;;6.50;99.90;;;;;;5089767;28;19915;-83
2022/11/26 11:15:22;;;;;;;30.02;11.07;;;6.60;99.90;;;;;;5092860;28;20401;-82
2022/11/26 11:18:10;;;;;;;34.72;11.02;;;6.60;99.90;;;;;;5109475;28;20055;-83
2022/11/26 11:20:39;;;;;;;21.52;10.27;;;6.70;99.90;;;;;;5092529;28;20084;-83
2022/11/26 11:23:09;;;;;;;34.38;11.65;;;6.70;99.90;;;;;;5092617;28;20536;-83
2022/11/26 11:25:38;;;;;;;41.45;12.18;;;6.90;99.90;;;;;;5082819;28;20041;-83
2022/11/26 11:28:27;;;;;;;31.17;11.45;;;6.80;99.90;;;;;;5072189;28;20408;-83
2022/11/26 11:31:13;;;;;;;33.25;12.45;;;6.80;99.90;;;;;;5075542;28;20109;-83
2022/11/26 11:33:40;;;;;;;40.55;12.43;;;7.00;99.90;;;;;;5092837;28;20036;-83
2022/11/26 11:36:13;;;;;;;31.30;11.77;;;6.90;99.90;;;;;;5100650;28;20119;-83
2022/11/26 11:38:56;;;;;;;39.30;13.13;;;6.90;99.90;;;;;;5092639;28;20583;-83
2022/11/26 11:41:38;;;;;;;35.15;11.95;;;6.90;99.90;;;;;;5088790;28;20035;-83
2022/11/26 11:44:36;;;;;;;34.13;11.48;;;7.00;99.90;;;;;;5100761;28;20040;-83
2022/11/26 11:47:05;;;;;;;29.80;10.82;;;7.00;99.90;;;;;;5078549;28;20398;-83
2022/11/26 11:50:00;;;;;;;33.03;11.88;;;7.00;99.90;;;;;;5083202;28;20098;-83
2022/11/26 11:52:45;;;;;;;27.95;11.25;;;7.10;99.90;;;;;;5080879;28;20036;-83
2022/11/26 11:55:12;;;;;;;34.65;13.00;;;7.10;99.90;;;;;;5072931;28;20436;-83
2022/11/26 11:58:02;;;;;;;32.78;11.50;;;7.20;99.90;;;;;;5092744;28;20051;-82
2022/11/26 12:00:48;;;;;;;39.25;12.70;;;7.20;99.90;;;;;;5108781;28;20044;-82
2022/11/26 12:03:44;;;;;;;37.42;12.88;;;7.30;99.90;;;;;;5091866;28;20111;-82
2022/11/26 12:06:43;;;;;;;36.50;11.80;;;7.30;99.90;;;;;;5092485;28;20075;-82
2022/11/26 12:09:35;;;;;;;37.47;11.55;;;7.40;99.90;;;;;;5109104;28;20048;-82
2022/11/26 12:12:22;;;;;;;30.65;12.77;;;7.40;99.90;;;;;;5092141;28;20040;-82
2022/11/26 12:14:58;;;;;;;40.10;13.32;;;7.40;99.90;;;;;;5091881;28;20032;-82
2022/11/26 12:17:37;;;;;;;40.40;12.55;;;7.40;99.90;;;;;;5092334;28;20043;-82
2022/11/26 12:21:06;;;;;;;32.70;13.25;;;7.40;99.90;;;;;;5091953;28;20126;-83
2022/11/26 12:24:02;;;;;;;34.72;13.02;;;7.40;99.90;;;;;;5005834;28;20054;-83
2022/11/26 12:26:45;;;;;;;36.78;11.77;;;7.50;99.90;;;;;;5072381;28;20040;-82
2022/11/26 12:29:23;;;;;;;41.53;13.77;;;7.50;99.90;;;;;;5079562;28;20103;-85
2022/11/26 12:32:03;;;;;;;31.98;12.20;;;7.50;99.90;;;;;;5095499;28;20038;-83
2022/11/26 12:34:39;;;;;;;37.30;12.43;;;7.50;99.90;;;;;;5095374;28;20044;-82
2022/11/26 12:37:22;;;;;;;38.75;12.65;;;7.50;99.90;;;;;;5075298;28;20123;-82
2022/11/26 12:40:17;;;;;;;36.33;12.63;;;7.60;99.90;;;;;;5087118;28;20040;-83
2022/11/26 12:42:54;;;;;;;32.78;13.07;;;7.60;99.90;;;;;;5095498;28;20036;-83
2022/11/26 12:45:41;;;;;;;36.63;13.07;;;7.60;99.90;;;;;;5095768;28;20510;-82
2022/11/26 12:48:36;;;;;;;39.08;13.40;;;7.60;99.90;;;;;;5094823;28;20048;-82
2022/11/26 12:51:11;;;;;;;33.53;12.90;;;7.60;99.90;;;;;;5095429;28;20044;-82
2022/11/26 12:54:19;;;;;;;44.63;13.43;;;7.70;99.90;;;;;;5095516;28;20071;-83
2022/11/26 12:57:22;;;;;;;30.73;11.77;;;7.60;99.90;;;;;;5087498;28;20051;-83
2022/11/26 12:59:59;;;;;;;35.60;11.77;;;7.70;99.90;;;;;;5078886;28;20087;-83
2022/11/26 13:02:33;;;;;;;38.60;13.23;;;7.70;99.90;;;;;;5075231;28;20035;-83
2022/11/26 13:05:00;;;;;;;31.90;12.35;;;7.70;99.90;;;;;;5102712;28;20074;-83
2022/11/26 13:07:51;;;;;;;34.53;11.63;;;7.70;99.90;;;;;;5095224;28;20144;-82
2022/11/26 13:10:49;;;;;;;32.70;11.75;;;7.70;99.90;;;;;;5111798;28;20439;-83
2022/11/26 13:13:18;;;;;;;30.83;11.75;;;7.70;99.90;;;;;;5095144;28;20513;-82